Harvest, Alabama
Current Conditions -  °F | °C
As of 3:35 AM on Sunday 23 Nov 2014 (Local Time) from KMDQ Reporting Station
Broken Clouds Broken Clouds  
Wind Chill: 54°   Ceiling: 2000
Heat Index: 54°   Visibility: 10mi
Dew Point: 41°   Wind: 9mph
Humidity: 62%   Direction: 140°SE
Pressure: 29.97"   Gusts: 21mph
Location:  34.86°N, 86.75°W
Report Text: KMDQ 230935Z AUTO 14008G18KT 10SM BKN020 12/05 A2997 RMK AO2
Loading
Personal Weather Stations






























Interactive Weather Map New forecast layout! Learn more

10-Day Weather Forecast

Advertisements
Track Severe Weather on mobile